sensor_id;sensor_type;location;lat;lon;timestamp;temperature;humidity
12761;DHT22;6444;49.742;6.114;2022-10-18T00:00:45;19.00;99.90
12761;DHT22;6444;49.742;6.114;2022-10-18T00:03:11;19.20;99.90
12761;DHT22;6444;49.742;6.114;2022-10-18T00:05:38;19.00;99.90
12761;DHT22;6444;49.742;6.114;2022-10-18T00:08:04;18.80;99.90
12761;DHT22;6444;49.742;6.114;2022-10-18T00:10:31;18.70;99.90
12761;DHT22;6444;49.742;6.114;2022-10-18T00:12:58;19.10;99.90
12761;DHT22;6444;49.742;6.114;2022-10-18T00:15:24;19.20;99.90
12761;DHT22;6444;49.742;6.114;2022-10-18T00:17:51;19.10;99.90
12761;DHT22;6444;49.742;6.114;2022-10-18T00:20:18;18.80;99.90
12761;DHT22;6444;49.742;6.114;2022-10-18T00:22:44;18.80;99.90
12761;DHT22;6444;49.742;6.114;2022-10-18T00:25:12;19.30;99.90
12761;DHT22;6444;49.742;6.114;2022-10-18T00:27:38;19.20;99.90
12761;DHT22;6444;49.742;6.114;2022-10-18T00:30:05;19.20;99.90
12761;DHT22;6444;49.742;6.114;2022-10-18T00:32:38;19.10;99.90
12761;DHT22;6444;49.742;6.114;2022-10-18T00:35:05;19.10;99.90
12761;DHT22;6444;49.742;6.114;2022-10-18T00:37:31;18.90;99.90
12761;DHT22;6444;49.742;6.114;2022-10-18T00:39:58;18.80;99.90
12761;DHT22;6444;49.742;6.114;2022-10-18T00:42:26;18.60;99.90
12761;DHT22;6444;49.742;6.114;2022-10-18T00:47:17;18.30;99.90
12761;DHT22;6444;49.742;6.114;2022-10-18T00:49:49;17.90;99.90
12761;DHT22;6444;49.742;6.114;2022-10-18T00:52:25;17.80;99.90
12761;DHT22;6444;49.742;6.114;2022-10-18T00:54:49;18.00;99.90
12761;DHT22;6444;49.742;6.114;2022-10-18T00:57:16;18.60;99.90
12761;DHT22;6444;49.742;6.114;2022-10-18T00:59:43;19.10;99.90
12761;DHT22;6444;49.742;6.114;2022-10-18T01:02:09;19.10;99.90
12761;DHT22;6444;49.742;6.114;2022-10-18T01:04:36;19.20;99.90
12761;DHT22;6444;49.742;6.114;2022-10-18T01:07:26;19.40;99.90
12761;DHT22;6444;49.742;6.114;2022-10-18T01:17:52;19.10;99.90
12761;DHT22;6444;49.742;6.114;2022-10-18T01:26:05;18.10;99.90
12761;DHT22;6444;49.742;6.114;2022-10-18T01:31:24;18.40;99.90
12761;DHT22;6444;49.742;6.114;2022-10-18T01:33:50;18.30;99.90
12761;DHT22;6444;49.742;6.114;2022-10-18T01:36:30;18.10;99.90
12761;DHT22;6444;49.742;6.114;2022-10-18T01:38:54;18.00;99.90
12761;DHT22;6444;49.742;6.114;2022-10-18T01:41:21;17.70;99.90
12761;DHT22;6444;49.742;6.114;2022-10-18T01:43:47;18.00;99.90
12761;DHT22;6444;49.742;6.114;2022-10-18T01:46:14;17.90;99.90
12761;DHT22;6444;49.742;6.114;2022-10-18T01:48:40;18.20;99.90
12761;DHT22;6444;49.742;6.114;2022-10-18T01:51:07;18.40;99.90
12761;DHT22;6444;49.742;6.114;2022-10-18T01:53:34;18.70;99.90
12761;DHT22;6444;49.742;6.114;2022-10-18T01:56:09;18.70;99.90
12761;DHT22;6444;49.742;6.114;2022-10-18T02:02:23;19.00;99.90
12761;DHT22;6444;49.742;6.114;2022-10-18T02:03:58;19.00;99.90
12761;DHT22;6444;49.742;6.114;2022-10-18T02:06:25;18.90;99.90
12761;DHT22;6444;49.742;6.114;2022-10-18T02:09:32;18.50;99.90
12761;DHT22;6444;49.742;6.114;2022-10-18T02:11:19;18.70;99.90
12761;DHT22;6444;49.742;6.114;2022-10-18T02:13:47;18.90;99.90
12761;DHT22;6444;49.742;6.114;2022-10-18T02:16:18;19.20;99.90
12761;DHT22;6444;49.742;6.114;2022-10-18T02:18:44;19.30;99.90
12761;DHT22;6444;49.742;6.114;2022-10-18T02:21:09;19.50;99.90
12761;DHT22;6444;49.742;6.114;2022-10-18T02:23:34;19.50;99.90
12761;DHT22;6444;49.742;6.114;2022-10-18T02:26:01;19.60;99.90
12761;DHT22;6444;49.742;6.114;2022-10-18T02:28:28;19.60;99.90
12761;DHT22;6444;49.742;6.114;2022-10-18T02:31:17;19.10;99.90
12761;DHT22;6444;49.742;6.114;2022-10-18T02:33:49;19.40;99.90
12761;DHT22;6444;49.742;6.114;2022-10-18T02:36:14;19.40;99.90
12761;DHT22;6444;49.742;6.114;2022-10-18T02:38:38;19.10;99.90
12761;DHT22;6444;49.742;6.114;2022-10-18T02:41:06;19.20;99.90
12761;DHT22;6444;49.742;6.114;2022-10-18T02:43:32;19.20;99.90
12761;DHT22;6444;49.742;6.114;2022-10-18T02:45:59;19.20;99.90
12761;DHT22;6444;49.742;6.114;2022-10-18T02:48:26;19.20;99.90
12761;DHT22;6444;49.742;6.114;2022-10-18T02:50:52;19.40;99.90
12761;DHT22;6444;49.742;6.114;2022-10-18T02:53:19;19.40;99.90
12761;DHT22;6444;49.742;6.114;2022-10-18T02:55:46;19.50;99.90
12761;DHT22;6444;49.742;6.114;2022-10-18T02:58:12;19.50;99.90
12761;DHT22;6444;49.742;6.114;2022-10-18T03:00:39;19.60;99.90
12761;DHT22;6444;49.742;6.114;2022-10-18T03:03:06;19.60;99.90
12761;DHT22;6444;49.742;6.114;2022-10-18T03:05:32;19.60;99.90
12761;DHT22;6444;49.742;6.114;2022-10-18T03:07:59;19.20;99.90
12761;DHT22;6444;49.742;6.114;2022-10-18T03:10:25;19.40;99.90
12761;DHT22;6444;49.742;6.114;2022-10-18T03:12:52;19.50;99.90
12761;DHT22;6444;49.742;6.114;2022-10-18T03:15:19;19.70;99.90
12761;DHT22;6444;49.742;6.114;2022-10-18T03:17:45;19.70;99.90
12761;DHT22;6444;49.742;6.114;2022-10-18T03:20:12;19.20;99.90
12761;DHT22;6444;49.742;6.114;2022-10-18T03:22:39;19.40;99.90
12761;DHT22;6444;49.742;6.114;2022-10-18T03:25:05;19.60;99.90
12761;DHT22;6444;49.742;6.114;2022-10-18T03:27:32;19.60;99.90
12761;DHT22;6444;49.742;6.114;2022-10-18T03:29:59;19.30;99.90
12761;DHT22;6444;49.742;6.114;2022-10-18T03:32:25;18.70;99.90
12761;DHT22;6444;49.742;6.114;2022-10-18T03:34:52;18.40;99.90
12761;DHT22;6444;49.742;6.114;2022-10-18T03:37:19;18.70;99.90
12761;DHT22;6444;49.742;6.114;2022-10-18T03:39:46;18.60;99.90
12761;DHT22;6444;49.742;6.114;2022-10-18T03:42:13;19.00;99.90
12761;DHT22;6444;49.742;6.114;2022-10-18T03:44:39;19.30;99.90
12761;DHT22;6444;49.742;6.114;2022-10-18T03:47:06;19.40;99.90
12761;DHT22;6444;49.742;6.114;2022-10-18T03:49:32;19.40;99.90
12761;DHT22;6444;49.742;6.114;2022-10-18T03:51:59;19.40;99.90
12761;DHT22;6444;49.742;6.114;2022-10-18T03:54:26;19.00;99.90
12761;DHT22;6444;49.742;6.114;2022-10-18T03:56:53;18.90;99.90
12761;DHT22;6444;49.742;6.114;2022-10-18T03:59:20;19.20;99.90
12761;DHT22;6444;49.742;6.114;2022-10-18T04:01:47;19.20;99.90
12761;DHT22;6444;49.742;6.114;2022-10-18T04:04:13;19.00;99.90
12761;DHT22;6444;49.742;6.114;2022-10-18T04:06:41;19.20;99.90
12761;DHT22;6444;49.742;6.114;2022-10-18T04:09:07;19.20;99.90
12761;DHT22;6444;49.742;6.114;2022-10-18T04:11:34;19.30;99.90
12761;DHT22;6444;49.742;6.114;2022-10-18T04:14:01;19.40;99.90
12761;DHT22;6444;49.742;6.114;2022-10-18T04:16:27;19.30;99.90
12761;DHT22;6444;49.742;6.114;2022-10-18T04:18:55;19.40;99.90
12761;DHT22;6444;49.742;6.114;2022-10-18T04:21:21;19.30;99.90
12761;DHT22;6444;49.742;6.114;2022-10-18T04:23:48;19.50;99.90
12761;DHT22;6444;49.742;6.114;2022-10-18T04:26:15;19.50;99.90
12761;DHT22;6444;49.742;6.114;2022-10-18T04:28:47;19.30;99.90
12761;DHT22;6444;49.742;6.114;2022-10-18T04:31:16;19.40;99.90
12761;DHT22;6444;49.742;6.114;2022-10-18T04:33:43;19.50;99.90
12761;DHT22;6444;49.742;6.114;2022-10-18T04:36:09;19.50;99.90
12761;DHT22;6444;49.742;6.114;2022-10-18T04:38:36;19.40;99.90
12761;DHT22;6444;49.742;6.114;2022-10-18T04:41:03;18.90;99.90
12761;DHT22;6444;49.742;6.114;2022-10-18T04:43:29;18.40;99.90
12761;DHT22;6444;49.742;6.114;2022-10-18T04:45:56;18.30;99.90
12761;DHT22;6444;49.742;6.114;2022-10-18T04:48:23;18.30;99.90
12761;DHT22;6444;49.742;6.114;2022-10-18T04:50:49;18.40;99.90
12761;DHT22;6444;49.742;6.114;2022-10-18T04:53:16;18.90;99.90
12761;DHT22;6444;49.742;6.114;2022-10-18T04:55:43;19.30;99.90
12761;DHT22;6444;49.742;6.114;2022-10-18T04:58:09;19.50;99.90
12761;DHT22;6444;49.742;6.114;2022-10-18T05:00:36;19.30;99.90
12761;DHT22;6444;49.742;6.114;2022-10-18T05:03:02;19.40;99.90
12761;DHT22;6444;49.742;6.114;2022-10-18T05:05:29;19.30;99.90
12761;DHT22;6444;49.742;6.114;2022-10-18T05:07:56;19.30;99.90
12761;DHT22;6444;49.742;6.114;2022-10-18T05:10:22;19.40;99.90
12761;DHT22;6444;49.742;6.114;2022-10-18T05:12:49;19.50;99.90
12761;DHT22;6444;49.742;6.114;2022-10-18T05:15:15;19.20;99.90
12761;DHT22;6444;49.742;6.114;2022-10-18T05:17:42;18.70;99.90
12761;DHT22;6444;49.742;6.114;2022-10-18T05:20:09;18.80;99.90
12761;DHT22;6444;49.742;6.114;2022-10-18T05:22:35;18.90;99.90
12761;DHT22;6444;49.742;6.114;2022-10-18T05:25:02;18.70;99.90
12761;DHT22;6444;49.742;6.114;2022-10-18T05:27:29;19.00;99.90
12761;DHT22;6444;49.742;6.114;2022-10-18T05:29:55;19.30;99.90
12761;DHT22;6444;49.742;6.114;2022-10-18T05:32:22;19.30;99.90
12761;DHT22;6444;49.742;6.114;2022-10-18T05:34:49;19.40;99.90
12761;DHT22;6444;49.742;6.114;2022-10-18T05:37:15;19.40;99.90
12761;DHT22;6444;49.742;6.114;2022-10-18T05:39:42;19.40;99.90
12761;DHT22;6444;49.742;6.114;2022-10-18T05:42:09;19.50;99.90
12761;DHT22;6444;49.742;6.114;2022-10-18T05:44:35;19.50;99.90
12761;DHT22;6444;49.742;6.114;2022-10-18T05:47:02;19.70;99.90
12761;DHT22;6444;49.742;6.114;2022-10-18T05:49:28;19.70;99.90
12761;DHT22;6444;49.742;6.114;2022-10-18T05:51:55;19.80;99.90
12761;DHT22;6444;49.742;6.114;2022-10-18T05:54:22;19.70;99.90
12761;DHT22;6444;49.742;6.114;2022-10-18T05:56:49;18.70;99.90
12761;DHT22;6444;49.742;6.114;2022-10-18T05:59:16;18.60;99.90
12761;DHT22;6444;49.742;6.114;2022-10-18T06:01:42;18.90;99.90
12761;DHT22;6444;49.742;6.114;2022-10-18T06:04:09;19.10;99.90
12761;DHT22;6444;49.742;6.114;2022-10-18T06:06:36;18.80;99.90
12761;DHT22;6444;49.742;6.114;2022-10-18T06:09:02;19.00;99.90
12761;DHT22;6444;49.742;6.114;2022-10-18T06:11:29;19.10;99.90
12761;DHT22;6444;49.742;6.114;2022-10-18T06:13:55;19.20;99.90
12761;DHT22;6444;49.742;6.114;2022-10-18T06:16:23;18.80;99.90
12761;DHT22;6444;49.742;6.114;2022-10-18T06:18:50;19.40;99.90
12761;DHT22;6444;49.742;6.114;2022-10-18T06:21:16;19.40;99.90
12761;DHT22;6444;49.742;6.114;2022-10-18T06:23:43;19.60;99.90
12761;DHT22;6444;49.742;6.114;2022-10-18T06:26:09;19.70;99.90
12761;DHT22;6444;49.742;6.114;2022-10-18T06:28:36;19.80;99.90
12761;DHT22;6444;49.742;6.114;2022-10-18T06:31:03;19.70;99.90
12761;DHT22;6444;49.742;6.114;2022-10-18T06:33:29;19.60;99.90
12761;DHT22;6444;49.742;6.114;2022-10-18T06:35:56;19.50;99.90
12761;DHT22;6444;49.742;6.114;2022-10-18T06:38:23;19.60;99.90
12761;DHT22;6444;49.742;6.114;2022-10-18T06:40:51;19.60;99.90
12761;DHT22;6444;49.742;6.114;2022-10-18T06:43:17;19.50;99.90
12761;DHT22;6444;49.742;6.114;2022-10-18T06:45:44;19.60;99.90
12761;DHT22;6444;49.742;6.114;2022-10-18T06:48:11;19.70;99.90
12761;DHT22;6444;49.742;6.114;2022-10-18T06:50:37;19.80;99.90
12761;DHT22;6444;49.742;6.114;2022-10-18T06:53:05;20.10;99.90
12761;DHT22;6444;49.742;6.114;2022-10-18T06:55:31;20.10;99.90
12761;DHT22;6444;49.742;6.114;2022-10-18T06:57:58;20.10;99.90
12761;DHT22;6444;49.742;6.114;2022-10-18T07:00:24;20.10;99.90
12761;DHT22;6444;49.742;6.114;2022-10-18T07:02:51;20.10;99.90
12761;DHT22;6444;49.742;6.114;2022-10-18T07:05:18;20.20;99.90
12761;DHT22;6444;49.742;6.114;2022-10-18T07:07:44;20.20;99.90
12761;DHT22;6444;49.742;6.114;2022-10-18T07:10:11;20.30;99.90
12761;DHT22;6444;49.742;6.114;2022-10-18T07:12:38;20.30;99.90
12761;DHT22;6444;49.742;6.114;2022-10-18T07:15:05;20.30;99.90
12761;DHT22;6444;49.742;6.114;2022-10-18T07:17:31;20.30;99.90
12761;DHT22;6444;49.742;6.114;2022-10-18T07:19:58;20.40;99.90
12761;DHT22;6444;49.742;6.114;2022-10-18T07:22:24;20.40;99.90
12761;DHT22;6444;49.742;6.114;2022-10-18T07:24:51;20.50;99.90
12761;DHT22;6444;49.742;6.114;2022-10-18T07:27:18;20.00;99.90
12761;DHT22;6444;49.742;6.114;2022-10-18T07:29:45;19.60;99.90
12761;DHT22;6444;49.742;6.114;2022-10-18T07:32:12;19.60;99.90
12761;DHT22;6444;49.742;6.114;2022-10-18T07:34:38;20.00;99.90
12761;DHT22;6444;49.742;6.114;2022-10-18T07:37:05;20.30;99.90
12761;DHT22;6444;49.742;6.114;2022-10-18T07:39:32;20.30;99.90
12761;DHT22;6444;49.742;6.114;2022-10-18T07:41:59;20.10;99.90
12761;DHT22;6444;49.742;6.114;2022-10-18T07:44:26;20.00;99.90
12761;DHT22;6444;49.742;6.114;2022-10-18T07:46:52;20.20;99.90
12761;DHT22;6444;49.742;6.114;2022-10-18T07:49:19;20.40;99.90
12761;DHT22;6444;49.742;6.114;2022-10-18T07:51:46;20.50;99.90
12761;DHT22;6444;49.742;6.114;2022-10-18T07:54:12;20.50;99.90
12761;DHT22;6444;49.742;6.114;2022-10-18T07:56:39;20.10;99.90
12761;DHT22;6444;49.742;6.114;2022-10-18T07:59:05;20.50;99.90
12761;DHT22;6444;49.742;6.114;2022-10-18T08:01:32;20.70;99.90
12761;DHT22;6444;49.742;6.114;2022-10-18T08:03:59;21.00;99.90
12761;DHT22;6444;49.742;6.114;2022-10-18T08:06:25;21.10;99.90
12761;DHT22;6444;49.742;6.114;2022-10-18T08:08:52;21.20;99.90
12761;DHT22;6444;49.742;6.114;2022-10-18T08:11:21;21.30;99.90
12761;DHT22;6444;49.742;6.114;2022-10-18T08:13:46;21.20;99.90
12761;DHT22;6444;49.742;6.114;2022-10-18T08:16:13;21.60;99.90
12761;DHT22;6444;49.742;6.114;2022-10-18T08:18:39;22.10;99.90
12761;DHT22;6444;49.742;6.114;2022-10-18T08:21:07;22.60;99.90
12761;DHT22;6444;49.742;6.114;2022-10-18T08:23:33;23.90;99.90
12761;DHT22;6444;49.742;6.114;2022-10-18T08:26:01;23.90;99.90
12761;DHT22;6444;49.742;6.114;2022-10-18T08:28:27;23.80;99.90
12761;DHT22;6444;49.742;6.114;2022-10-18T08:30:53;23.50;99.90
12761;DHT22;6444;49.742;6.114;2022-10-18T08:33:20;22.60;99.90
12761;DHT22;6444;49.742;6.114;2022-10-18T08:35:56;21.40;99.90
12761;DHT22;6444;49.742;6.114;2022-10-18T08:38:22;21.30;99.90
12761;DHT22;6444;49.742;6.114;2022-10-18T08:40:49;21.60;99.90
12761;DHT22;6444;49.742;6.114;2022-10-18T08:43:24;21.90;99.90
12761;DHT22;6444;49.742;6.114;2022-10-18T08:45:48;22.10;99.90
12761;DHT22;6444;49.742;6.114;2022-10-18T08:48:34;22.30;99.90
12761;DHT22;6444;49.742;6.114;2022-10-18T08:50:44;22.30;99.90
12761;DHT22;6444;49.742;6.114;2022-10-18T08:53:28;22.40;99.90
12761;DHT22;6444;49.742;6.114;2022-10-18T08:56:11;21.80;99.90
12761;DHT22;6444;49.742;6.114;2022-10-18T08:58:34;21.70;99.90
12761;DHT22;6444;49.742;6.114;2022-10-18T09:01:10;21.80;99.90
12761;DHT22;6444;49.742;6.114;2022-10-18T09:09:20;22.40;99.90
12761;DHT22;6444;49.742;6.114;2022-10-18T09:11:54;22.10;99.90
12761;DHT22;6444;49.742;6.114;2022-10-18T09:14:54;22.20;99.90
12761;DHT22;6444;49.742;6.114;2022-10-18T09:17:06;22.60;99.90
12761;DHT22;6444;49.742;6.114;2022-10-18T09:22:15;22.60;99.90
12761;DHT22;6444;49.742;6.114;2022-10-18T09:24:50;22.20;99.90
12761;DHT22;6444;49.742;6.114;2022-10-18T09:27:18;22.50;99.90
12761;DHT22;6444;49.742;6.114;2022-10-18T09:35:17;22.80;99.90
12761;DHT22;6444;49.742;6.114;2022-10-18T09:37:42;22.80;99.90
12761;DHT22;6444;49.742;6.114;2022-10-18T09:40:16;23.00;99.90
12761;DHT22;6444;49.742;6.114;2022-10-18T09:42:52;22.90;99.90
12761;DHT22;6444;49.742;6.114;2022-10-18T09:45:36;23.10;99.90
12761;DHT22;6444;49.742;6.114;2022-10-18T09:48:06;23.10;99.90
12761;DHT22;6444;49.742;6.114;2022-10-18T09:50:36;23.10;99.90
12761;DHT22;6444;49.742;6.114;2022-10-18T09:56:05;23.50;99.90
12761;DHT22;6444;49.742;6.114;2022-10-18T09:58:41;23.30;99.90
12761;DHT22;6444;49.742;6.114;2022-10-18T10:01:07;23.00;99.90
12761;DHT22;6444;49.742;6.114;2022-10-18T10:03:33;23.00;99.90
12761;DHT22;6444;49.742;6.114;2022-10-18T10:08:43;22.90;99.90
12761;DHT22;6444;49.742;6.114;2022-10-18T10:11:27;22.60;99.90
12761;DHT22;6444;49.742;6.114;2022-10-18T10:13:57;22.80;99.90
12761;DHT22;6444;49.742;6.114;2022-10-18T10:16:23;23.10;99.90
12761;DHT22;6444;49.742;6.114;2022-10-18T10:18:53;23.10;99.90
12761;DHT22;6444;49.742;6.114;2022-10-18T10:21:19;23.20;99.90
12761;DHT22;6444;49.742;6.114;2022-10-18T10:23:56;23.10;99.90
12761;DHT22;6444;49.742;6.114;2022-10-18T10:26:34;23.30;99.90
12761;DHT22;6444;49.742;6.114;2022-10-18T10:29:00;23.30;99.90
12761;DHT22;6444;49.742;6.114;2022-10-18T10:31:28;23.40;99.90
12761;DHT22;6444;49.742;6.114;2022-10-18T10:34:01;23.70;99.90
12761;DHT22;6444;49.742;6.114;2022-10-18T10:36:28;23.80;99.90
12761;DHT22;6444;49.742;6.114;2022-10-18T10:39:04;23.70;99.90
12761;DHT22;6444;49.742;6.114;2022-10-18T10:41:31;23.10;99.90
12761;DHT22;6444;49.742;6.114;2022-10-18T10:43:57;23.10;99.90
12761;DHT22;6444;49.742;6.114;2022-10-18T10:46:24;22.80;99.90
12761;DHT22;6444;49.742;6.114;2022-10-18T10:48:57;22.70;99.90
12761;DHT22;6444;49.742;6.114;2022-10-18T10:51:30;22.60;99.90
12761;DHT22;6444;49.742;6.114;2022-10-18T10:56:32;22.60;99.90
12761;DHT22;6444;49.742;6.114;2022-10-18T10:59:05;22.60;99.90
12761;DHT22;6444;49.742;6.114;2022-10-18T11:01:26;22.70;99.90
12761;DHT22;6444;49.742;6.114;2022-10-18T11:03:56;22.40;99.90
12761;DHT22;6444;49.742;6.114;2022-10-18T11:06:38;22.30;99.90
12761;DHT22;6444;49.742;6.114;2022-10-18T11:09:04;22.60;99.90
12761;DHT22;6444;49.742;6.114;2022-10-18T11:11:38;22.80;99.90
12761;DHT22;6444;49.742;6.114;2022-10-18T11:16:55;23.30;99.90
12761;DHT22;6444;49.742;6.114;2022-10-18T11:19:31;23.50;99.90
12761;DHT22;6444;49.742;6.114;2022-10-18T11:21:55;23.40;99.90
12761;DHT22;6444;49.742;6.114;2022-10-18T11:24:22;23.30;99.90
12761;DHT22;6444;49.742;6.114;2022-10-18T11:26:55;22.90;99.90
12761;DHT22;6444;49.742;6.114;2022-10-18T11:40:28;23.10;99.90
12761;DHT22;6444;49.742;6.114;2022-10-18T11:43:06;23.40;99.90
12761;DHT22;6444;49.742;6.114;2022-10-18T11:45:50;23.50;99.90
12761;DHT22;6444;49.742;6.114;2022-10-18T11:48:19;23.70;99.90
12761;DHT22;6444;49.742;6.114;2022-10-18T11:50:44;23.70;99.90
12761;DHT22;6444;49.742;6.114;2022-10-18T11:55:48;23.70;99.90
12761;DHT22;6444;49.742;6.114;2022-10-18T12:06:11;22.10;99.90
12761;DHT22;6444;49.742;6.114;2022-10-18T12:08:43;22.00;99.90
12761;DHT22;6444;49.742;6.114;2022-10-18T12:11:09;21.70;99.90
12761;DHT22;6444;49.742;6.114;2022-10-18T12:13:44;21.60;99.90
12761;DHT22;6444;49.742;6.114;2022-10-18T12:16:09;21.90;99.90
12761;DHT22;6444;49.742;6.114;2022-10-18T12:18:40;22.40;99.90
12761;DHT22;6444;49.742;6.114;2022-10-18T12:21:03;22.80;99.90
12761;DHT22;6444;49.742;6.114;2022-10-18T12:24:30;22.70;99.90
12761;DHT22;6444;49.742;6.114;2022-10-18T12:26:05;23.00;99.90
12761;DHT22;6444;49.742;6.114;2022-10-18T12:31:23;23.50;99.90
12761;DHT22;6444;49.742;6.114;2022-10-18T12:34:00;23.70;99.90
12761;DHT22;6444;49.742;6.114;2022-10-18T12:38:55;24.10;99.90
12761;DHT22;6444;49.742;6.114;2022-10-18T12:41:24;24.10;99.90
12761;DHT22;6444;49.742;6.114;2022-10-18T12:43:56;24.10;99.90
12761;DHT22;6444;49.742;6.114;2022-10-18T12:46:20;24.10;99.90
12761;DHT22;6444;49.742;6.114;2022-10-18T12:48:59;23.80;99.90
12761;DHT22;6444;49.742;6.114;2022-10-18T12:51:22;24.00;99.90
12761;DHT22;6444;49.742;6.114;2022-10-18T12:53:46;24.30;99.90
12761;DHT22;6444;49.742;6.114;2022-10-18T13:04:38;23.10;99.90
12761;DHT22;6444;49.742;6.114;2022-10-18T13:09:28;22.70;99.90
12761;DHT22;6444;49.742;6.114;2022-10-18T13:17:54;23.00;99.90
12761;DHT22;6444;49.742;6.114;2022-10-18T13:20:26;23.40;99.90
12761;DHT22;6444;49.742;6.114;2022-10-18T13:31:12;23.10;99.90
12761;DHT22;6444;49.742;6.114;2022-10-18T13:33:34;23.10;99.90
12761;DHT22;6444;49.742;6.114;2022-10-18T13:41:29;23.90;99.90
12761;DHT22;6444;49.742;6.114;2022-10-18T13:46:24;24.40;99.90
12761;DHT22;6444;49.742;6.114;2022-10-18T13:48:52;24.40;99.90
12761;DHT22;6444;49.742;6.114;2022-10-18T13:51:30;24.20;99.90
12761;DHT22;6444;49.742;6.114;2022-10-18T13:54:02;23.80;99.90
12761;DHT22;6444;49.742;6.114;2022-10-18T13:56:32;23.30;99.90
12761;DHT22;6444;49.742;6.114;2022-10-18T14:01:36;23.30;99.90
12761;DHT22;6444;49.742;6.114;2022-10-18T14:06:56;23.70;99.90
12761;DHT22;6444;49.742;6.114;2022-10-18T14:09:24;23.60;99.90
12761;DHT22;6444;49.742;6.114;2022-10-18T14:17:33;24.30;99.90
12761;DHT22;6444;49.742;6.114;2022-10-18T14:22:56;23.70;99.90
12761;DHT22;6444;49.742;6.114;2022-10-18T14:25:28;24.30;99.90
12761;DHT22;6444;49.742;6.114;2022-10-18T14:27:48;23.60;99.90
12761;DHT22;6444;49.742;6.114;2022-10-18T14:30:19;22.80;99.90
12761;DHT22;6444;49.742;6.114;2022-10-18T14:32:45;23.90;99.90
12761;DHT22;6444;49.742;6.114;2022-10-18T14:35:21;23.80;99.90
12761;DHT22;6444;49.742;6.114;2022-10-18T14:37:48;23.90;99.90
12761;DHT22;6444;49.742;6.114;2022-10-18T14:40:36;23.00;99.90
12761;DHT22;6444;49.742;6.114;2022-10-18T14:45:34;21.90;99.90
12761;DHT22;6444;49.742;6.114;2022-10-18T14:48:12;22.10;99.90
12761;DHT22;6444;49.742;6.114;2022-10-18T14:50:33;22.20;99.90
12761;DHT22;6444;49.742;6.114;2022-10-18T14:53:06;21.90;99.90
12761;DHT22;6444;49.742;6.114;2022-10-18T14:55:32;21.80;99.90
12761;DHT22;6444;49.742;6.114;2022-10-18T14:57:59;21.80;99.90
12761;DHT22;6444;49.742;6.114;2022-10-18T15:00:31;21.40;99.90
12761;DHT22;6444;49.742;6.114;2022-10-18T15:02:52;21.30;99.90
12761;DHT22;6444;49.742;6.114;2022-10-18T15:05:20;21.80;99.90
12761;DHT22;6444;49.742;6.114;2022-10-18T15:07:46;22.10;99.90
12761;DHT22;6444;49.742;6.114;2022-10-18T15:10:19;22.20;99.90
12761;DHT22;6444;49.742;6.114;2022-10-18T15:12:42;21.80;99.90
12761;DHT22;6444;49.742;6.114;2022-10-18T15:15:16;22.00;99.90
12761;DHT22;6444;49.742;6.114;2022-10-18T15:17:41;21.70;99.90
12761;DHT22;6444;49.742;6.114;2022-10-18T15:22:46;21.10;99.90
12761;DHT22;6444;49.742;6.114;2022-10-18T15:25:26;20.70;99.90
12761;DHT22;6444;49.742;6.114;2022-10-18T15:27:55;21.00;99.90
12761;DHT22;6444;49.742;6.114;2022-10-18T15:30:28;21.10;99.90
12761;DHT22;6444;49.742;6.114;2022-10-18T15:32:57;21.20;99.90
12761;DHT22;6444;49.742;6.114;2022-10-18T15:35:27;21.30;99.90
12761;DHT22;6444;49.742;6.114;2022-10-18T15:37:53;21.40;99.90
12761;DHT22;6444;49.742;6.114;2022-10-18T15:40:34;21.40;99.90
12761;DHT22;6444;49.742;6.114;2022-10-18T15:42:59;21.70;99.90
12761;DHT22;6444;49.742;6.114;2022-10-18T15:47:57;22.20;99.90
12761;DHT22;6444;49.742;6.114;2022-10-18T15:50:37;22.60;99.90
12761;DHT22;6444;49.742;6.114;2022-10-18T15:55:48;23.30;99.90
12761;DHT22;6444;49.742;6.114;2022-10-18T15:58:27;22.80;99.90
12761;DHT22;6444;49.742;6.114;2022-10-18T16:00:56;23.10;99.90
12761;DHT22;6444;49.742;6.114;2022-10-18T16:03:22;23.30;99.90
12761;DHT22;6444;49.742;6.114;2022-10-18T16:05:50;23.30;99.90
12761;DHT22;6444;49.742;6.114;2022-10-18T16:08:22;23.20;99.90
12761;DHT22;6444;49.742;6.114;2022-10-18T16:10:48;23.10;99.90
12761;DHT22;6444;49.742;6.114;2022-10-18T16:13:14;22.70;99.90
12761;DHT22;6444;49.742;6.114;2022-10-18T16:15:41;22.40;99.90
12761;DHT22;6444;49.742;6.114;2022-10-18T16:18:10;22.30;99.90
12761;DHT22;6444;49.742;6.114;2022-10-18T16:20:34;22.00;99.90
12761;DHT22;6444;49.742;6.114;2022-10-18T16:23:01;21.90;99.90
12761;DHT22;6444;49.742;6.114;2022-10-18T16:25:27;21.70;99.90
12761;DHT22;6444;49.742;6.114;2022-10-18T16:27:54;21.60;99.90
12761;DHT22;6444;49.742;6.114;2022-10-18T16:30:21;21.20;99.90
12761;DHT22;6444;49.742;6.114;2022-10-18T16:32:48;20.90;99.90
12761;DHT22;6444;49.742;6.114;2022-10-18T16:35:15;20.90;99.90
12761;DHT22;6444;49.742;6.114;2022-10-18T16:37:41;21.00;99.90
12761;DHT22;6444;49.742;6.114;2022-10-18T16:40:21;20.80;99.90
12761;DHT22;6444;49.742;6.114;2022-10-18T16:42:47;20.40;99.90
12761;DHT22;6444;49.742;6.114;2022-10-18T16:45:13;20.10;99.90
12761;DHT22;6444;49.742;6.114;2022-10-18T16:47:40;20.00;99.90
12761;DHT22;6444;49.742;6.114;2022-10-18T16:50:09;19.40;99.90
12761;DHT22;6444;49.742;6.114;2022-10-18T16:52:33;19.50;99.90
12761;DHT22;6444;49.742;6.114;2022-10-18T16:55:00;19.40;99.90
12761;DHT22;6444;49.742;6.114;2022-10-18T16:57:27;19.40;99.90
12761;DHT22;6444;49.742;6.114;2022-10-18T16:59:54;19.60;99.90
12761;DHT22;6444;49.742;6.114;2022-10-18T17:02:20;19.50;99.90
12761;DHT22;6444;49.742;6.114;2022-10-18T17:04:47;19.10;99.90
12761;DHT22;6444;49.742;6.114;2022-10-18T17:07:20;19.20;99.90
12761;DHT22;6444;49.742;6.114;2022-10-18T17:09:43;19.40;99.90
12761;DHT22;6444;49.742;6.114;2022-10-18T17:12:10;19.50;99.90
12761;DHT22;6444;49.742;6.114;2022-10-18T17:14:36;19.50;99.90
12761;DHT22;6444;49.742;6.114;2022-10-18T17:17:04;19.50;99.90
12761;DHT22;6444;49.742;6.114;2022-10-18T17:19:30;19.40;99.90
12761;DHT22;6444;49.742;6.114;2022-10-18T17:21:57;19.50;99.90
12761;DHT22;6444;49.742;6.114;2022-10-18T17:24:23;19.50;99.90
12761;DHT22;6444;49.742;6.114;2022-10-18T17:26:50;19.50;99.90
12761;DHT22;6444;49.742;6.114;2022-10-18T17:29:17;19.40;99.90
12761;DHT22;6444;49.742;6.114;2022-10-18T17:31:44;19.40;99.90
12761;DHT22;6444;49.742;6.114;2022-10-18T17:34:11;19.30;99.90
12761;DHT22;6444;49.742;6.114;2022-10-18T17:36:37;19.30;99.90
12761;DHT22;6444;49.742;6.114;2022-10-18T17:39:04;18.70;99.90
12761;DHT22;6444;49.742;6.114;2022-10-18T17:41:31;18.80;99.90
12761;DHT22;6444;49.742;6.114;2022-10-18T17:43:58;19.00;99.90
12761;DHT22;6444;49.742;6.114;2022-10-18T17:46:25;18.90;99.90
12761;DHT22;6444;49.742;6.114;2022-10-18T17:48:52;19.00;99.90
12761;DHT22;6444;49.742;6.114;2022-10-18T17:51:18;19.00;99.90
12761;DHT22;6444;49.742;6.114;2022-10-18T17:53:45;19.00;99.90
12761;DHT22;6444;49.742;6.114;2022-10-18T17:56:11;18.90;99.90
12761;DHT22;6444;49.742;6.114;2022-10-18T17:58:39;18.40;99.90
12761;DHT22;6444;49.742;6.114;2022-10-18T18:01:13;18.30;99.90